Manitowoc, WI

2:19 PM CDT on May 03, 2015 (GMT -0500)
Sheboygan County Memorial | | Change Station
CLOSE
Current Station
Airport
Location: Sheboygan,
Elevation: 748 ft
Nearby Weather Stations

Elev 748 ft 43.77 °N, 87.85 °W | Updated 26 minutes ago

Clear
Clear
78 °F
Feels Like 78 °F
N
17
Wind Variable Wind from SSW
Gusts 29 mph

Today
High -- | Low -- °F
--% Chance of Precip.
Yesterday
High -- | Low -- °F
Precip. -- in
5:39 AM 7:56 PM
Full, 100% visible
Pressure 29.87 in
Visibility 10.0 miles
Clouds Scattered Clouds 6000 ft
Scattered Clouds 8500 ft
Dew Point 53 °F
Humidity 42%
Rainfall 0.00 in
Snow Depth Not available.
UV 8 out of 12
Pollen 11.30 out of 12
Air Quality Not available.
Flu Activity Local Activity
METAR KSBM 031853Z AUTO 20015G25KT 10SM SCT060 SCT085 26/12 A2987 RMK AO2 SLP114 T02560117

More Conditions Fewer Conditions

Pressure 29.87 in
Visibility 10.0 miles
Clouds Scattered Clouds 6000 ft
Scattered Clouds 8500 ft
Dew Point 53 °F
Humidity 42%
Rainfall 0.00 in
Snow Depth Not available.
UV 8 out of 12
Pollen 11.30 out of 12
Air Quality Not available.
Flu Activity Local Activity
METAR KSBM 031853Z AUTO 20015G25KT 10SM SCT060 SCT085 26/12 A2987 RMK AO2 SLP114 T02560117

More Conditions Fewer Conditions

Nepal has a long way to go to dig out and rebuild from a devastating earthquake. We have teamed up with several charities and organizations to make contributing to the relief effort as easy as possible.
How you can help: Portlight Strategies | Red Cross

10-Day Weather Forecast

Almanac

Astronomy

May. 03, 2015 Rise Set
Actual Time
Civil Twilight
Nautical Twilight
Astronomical Twilight
Moon
Length of Visible Light
Length of Day
Tomorrow will be .
, % of the Moon is Illuminated

Today's Extremes

State Highs State Lows

Community

WunderPhotos

Upload Photos

1,818,343 photos uploaded!

WunderBlogs® & News

Nearby

Air Quality

  Air Quality AQ Index Pollutant
Not available.

Snow Depth

Station Depth Elevation

Earthquake Activity

City Distance Mag. Time & Date
Minimum magnitude displayed is 2.5.

Coastal Water Temperatures

Place Temperature

Stations

Nearby Weather Stations

Station Location Temp. Windchill Dew Point Humidity Wind Precip. Elev Updated Type